Terminal Aerodrome Forecast
Issued by NWS Grand Forks, ND

Home | Current Version | Previous Version | Graphics & Text | Print | Product List | Glossary On
Versions: 1 2 3 4 5 6 7 8 9 10 11 12 13 14 15 16 17 18 19 20
000
FTUS43 KFGF 221125
TAFFAR
TAF
KFAR 221125Z 2212/2312 12011KT P6SM FEW250
     FM221400 14014KT P6SM BKN250
     FM221900 14019G29KT P6SM OVC045=

USA.gov is the U.S. government's official web portal to all federal, state and local government web resources and services.